Time;durP1;ratioP1;P1;durP2;ratioP2;P2;SDS_P1;SDS_P2;PMS_P1;PMS_P2;Temp;Humidity;BMP_temperature;BMP_pressure;BME280_temperature;BME280_humidity;BME280_pressure;Samples;Min_cycle;Max_cycle;Signal;HPM_P1;HPM_P2
2022/08/03 00:00:23;;;;;;;;;;;;;;;26.53;38.71;100468.66;5381638;32;36054;-79
2022/08/03 00:03:25;;;;;;;;;;;;;;;25.78;40.41;100462.94;5384110;32;34663;-76
2022/08/03 00:06:27;;;;;;;;;;;;;;;25.99;40.26;100463.44;5407079;32;35364;-68
2022/08/03 00:09:30;;;;;;;;;;;;;;;26.15;39.98;100457.31;5394695;32;35662;-66
2022/08/03 00:12:36;;;;;;;;;;;;;;;26.21;39.86;100453.97;5403599;32;44782;-79
2022/08/03 00:15:39;;;;;;;;;;;;;;;26.10;40.30;100456.94;5401094;32;34731;-79
2022/08/03 00:18:41;;;;;;;;;;;;;;;25.16;42.36;100465.53;5404408;32;35154;-68
2022/08/03 00:21:43;;;;;;;;;;;;;;;25.76;41.21;100464.94;5398302;32;35805;-68
2022/08/03 00:24:45;;;;;;;;;;;;;;;25.75;41.29;100455.16;5381789;32;35501;-69
2022/08/03 00:27:47;;;;;;;;;;;;;;;25.31;42.17;100464.03;5401226;32;35409;-69
2022/08/03 00:30:51;;;;;;;;;;;;;;;24.61;43.92;100472.75;5395740;32;37087;-79
2022/08/03 00:33:53;;;;;;;;;;;;;;;24.78;43.60;100470.09;5406255;32;35621;-79
2022/08/03 00:37:00;;;;;;;;;;;;;;;24.17;45.26;100470.63;5387367;32;35447;-67
2022/08/03 00:40:02;;;;;;;;;;;;;;;24.48;44.89;100467.72;5401749;32;36167;-73
2022/08/03 00:43:07;;;;;;;;;;;;;;;24.77;44.28;100484.53;5415708;32;45471;-78
2022/08/03 00:46:09;;;;;;;;;;;;;;;24.82;43.88;100481.41;5378220;32;35859;-68
2022/08/03 00:49:11;;;;;;;;;;;;;;;24.48;44.90;100482.00;5416123;32;34776;-67
2022/08/03 00:52:13;;;;;;;;;;;;;;;24.30;45.47;100476.50;5365996;32;35858;-76
2022/08/03 00:55:15;;;;;;;;;;;;;;;24.36;45.46;100476.97;5413628;32;35394;-69
2022/08/03 00:58:17;;;;;;;;;;;;;;;24.60;47.09;100482.62;5382918;32;34576;-75
2022/08/03 01:01:19;;;;;;;;;;;;;;;24.60;46.38;100482.62;5388203;32;37872;-78
2022/08/03 01:04:21;;;;;;;;;;;;;;;24.40;46.75;100489.06;5397370;32;35554;-66
2022/08/03 01:07:23;;;;;;;;;;;;;;;24.10;48.32;100490.97;5386824;32;35347;-67
2022/08/03 01:10:28;;;;;;;;;;;;;;;24.43;47.71;100486.12;5414015;32;35396;-67
2022/08/03 01:13:40;;;;;;;;;;;;;;;24.43;47.14;100484.28;5399769;32;35624;-77
2022/08/03 01:17:09;;;;;;;;;;;;;;;24.32;46.97;100490.63;5408361;32;36149;-79
2022/08/03 01:20:12;;;;;;;;;;;;;;;24.03;48.90;100496.09;5412475;32;44967;-77
2022/08/03 01:23:14;;;;;;;;;;;;;;;24.40;47.43;100494.44;5386409;32;35481;-68
2022/08/03 01:26:24;;;;;;;;;;;;;;;24.48;47.19;100495.44;5409210;32;34846;-68
2022/08/03 01:29:45;;;;;;;;;;;;;;;23.95;48.58;100492.41;5391766;32;35315;-80
2022/08/03 01:32:53;;;;;;;;;;;;;;;24.31;48.14;100498.84;5398622;32;35475;-79
2022/08/03 01:36:03;;;;;;;;;;;;;;;24.01;48.51;100491.81;5402372;32;35372;-69
2022/08/03 01:39:08;;;;;;;;;;;;;;;23.85;49.32;100496.94;5391327;32;37542;-68
2022/08/03 01:42:10;;;;;;;;;;;;;;;24.27;48.65;100492.06;5402785;32;34642;-68
2022/08/03 01:45:12;;;;;;;;;;;;;;;23.93;49.70;100502.44;5380218;32;36076;-78
2022/08/03 01:48:14;;;;;;;;;;;;;;;24.25;48.30;100494.87;5413808;32;35012;-75
2022/08/03 01:51:17;;;;;;;;;;;;;;;24.91;46.34;100491.25;5376724;32;34950;-69
2022/08/03 01:54:19;;;;;;;;;;;;;;;24.03;48.76;100496.09;5394668;32;37498;-67
2022/08/03 01:57:21;;;;;;;;;;;;;;;24.63;48.14;100490.41;5409935;32;35808;-78
2022/08/03 02:00:23;;;;;;;;;;;;;;;24.20;48.97;100491.78;5382405;32;36031;-69
2022/08/03 02:03:25;;;;;;;;;;;;;;;24.04;49.02;100491.56;5405413;32;35570;-67
2022/08/03 02:06:28;;;;;;;;;;;;;;;24.54;47.66;100491.31;5384874;32;35863;-77
2022/08/03 02:09:50;;;;;;;;;;;;;;;24.42;48.40;100481.75;5411228;32;35889;-67
2022/08/03 02:12:52;;;;;;;;;;;;;;;23.57;51.38;100488.75;5385380;32;34373;-67
2022/08/03 02:15:54;;;;;;;;;;;;;;;23.63;51.50;100493.56;5391523;32;35692;-68
2022/08/03 02:18:56;;;;;;;;;;;;;;;23.62;50.66;100483.81;5407639;32;36302;-67
2022/08/03 02:21:58;;;;;;;;;;;;;;;23.78;50.69;100497.53;5390906;32;35852;-67
2022/08/03 02:25:02;;;;;;;;;;;;;;;23.61;51.08;100487.50;5396802;32;36153;-78
2022/08/03 02:28:09;;;;;;;;;;;;;;;23.76;50.02;100487.91;5396392;32;35245;-68
2022/08/03 02:31:16;;;;;;;;;;;;;;;24.46;47.99;100489.34;5410873;32;44620;-78
2022/08/03 02:34:17;;;;;;;;;;;;;;;24.16;48.44;100490.41;5395576;32;34667;-78
2022/08/03 02:37:19;;;;;;;;;;;;;;;24.35;47.92;100486.00;5397217;32;34702;-78
2022/08/03 02:40:21;;;;;;;;;;;;;;;24.65;46.98;100492.94;5405621;32;36068;-77
2022/08/03 02:43:23;;;;;;;;;;;;;;;23.69;49.66;100492.13;5393039;32;35435;-67
2022/08/03 02:46:27;;;;;;;;;;;;;;;23.03;51.92;100486.53;5414680;32;35465;-68
2022/08/03 02:49:29;;;;;;;;;;;;;;;23.18;51.19;100502.09;5392493;32;35855;-69
2022/08/03 02:52:52;;;;;;;;;;;;;;;22.92;52.12;100504.41;5371335;32;36515;-77
2022/08/03 02:55:54;;;;;;;;;;;;;;;23.04;51.64;100499.81;5413337;32;35290;-75
2022/08/03 02:58:56;;;;;;;;;;;;;;;23.02;51.69;100498.25;5384104;32;35959;-78
2022/08/03 03:01:58;;;;;;;;;;;;;;;23.22;51.59;100500.84;5411667;32;35222;-78
2022/08/03 03:05:00;;;;;;;;;;;;;;;23.49;50.52;100502.00;5392573;32;35042;-74
2022/08/03 03:08:22;;;;;;;;;;;;;;;23.20;51.55;100497.47;5396359;32;35567;-67
2022/08/03 03:11:29;;;;;;;;;;;;;;;22.85;52.10;100494.34;5395583;32;36079;-67
2022/08/03 03:14:31;;;;;;;;;;;;;;;23.63;50.76;100490.88;5392903;32;35412;-76
2022/08/03 03:17:35;;;;;;;;;;;;;;;24.17;48.92;100489.41;5418478;32;35266;-75
2022/08/03 03:20:36;;;;;;;;;;;;;;;24.54;47.88;100494.00;5399725;32;44725;-67
2022/08/03 03:23:40;;;;;;;;;;;;;;;23.84;50.04;100500.63;5410257;32;34897;-69
2022/08/03 03:26:42;;;;;;;;;;;;;;;24.12;49.23;100502.41;5382105;32;35162;-75
2022/08/03 03:29:44;;;;;;;;;;;;;;;23.29;51.38;100501.13;5397508;32;35303;-78
2022/08/03 03:32:46;;;;;;;;;;;;;;;23.80;50.05;100485.78;5398041;32;35945;-75
2022/08/03 03:35:48;;;;;;;;;;;;;;;24.14;49.52;100503.09;5381414;32;35466;-68
2022/08/03 03:38:50;;;;;;;;;;;;;;;24.08;49.23;100503.69;5408961;32;35165;-67
2022/08/03 03:41:54;;;;;;;;;;;;;;;22.96;52.83;100507.69;5386635;32;35106;-68
2022/08/03 03:44:56;;;;;;;;;;;;;;;22.54;54.19;100509.59;5410309;32;35546;-68
2022/08/03 03:48:00;;;;;;;;;;;;;;;22.66;53.98;100509.38;5383096;32;35940;-78
2022/08/03 03:51:02;;;;;;;;;;;;;;;22.73;54.09;100503.47;5383277;32;35433;-80
2022/08/03 03:54:07;;;;;;;;;;;;;;;23.00;53.48;100503.75;5397862;32;35609;-80
2022/08/03 03:57:10;;;;;;;;;;;;;;;22.73;54.23;100504.31;5388118;32;44603;-80
2022/08/03 04:00:15;;;;;;;;;;;;;;;23.74;51.30;100506.00;5398120;32;35383;-80
2022/08/03 04:03:17;;;;;;;;;;;;;;;24.28;49.58;100501.78;5387853;32;35395;-71
2022/08/03 04:13:09;;;;;;;;;;;;;;;23.13;53.08;100517.75;5402627;32;44512;-79
2022/08/03 04:16:12;;;;;;;;;;;;;;;24.03;50.59;100511.34;5412269;32;34625;-68
2022/08/03 04:19:18;;;;;;;;;;;;;;;24.13;50.16;100516.69;5392448;32;34470;-67
2022/08/03 04:22:25;;;;;;;;;;;;;;;23.49;52.13;100523.44;5401975;32;35383;-80
2022/08/03 04:25:29;;;;;;;;;;;;;;;23.22;52.88;100532.16;5388574;32;35838;-68
2022/08/03 04:28:31;;;;;;;;;;;;;;;23.07;54.06;100537.06;5390058;32;35273;-77
2022/08/03 04:31:33;;;;;;;;;;;;;;;23.26;53.74;100528.25;5410586;32;34861;-68
2022/08/03 04:34:35;;;;;;;;;;;;;;;23.77;51.91;100521.81;5392178;32;43161;-67
2022/08/03 04:37:38;;;;;;;;;;;;;;;23.97;51.64;100531.56;5401705;32;36029;-67
2022/08/03 04:40:40;;;;;;;;;;;;;;;23.93;51.54;100532.81;5390148;32;34707;-76
2022/08/03 04:43:42;;;;;;;;;;;;;;;24.77;49.43;100535.63;5401342;32;34769;-80
2022/08/03 04:46:44;;;;;;;;;;;;;;;25.55;46.86;100525.28;5399710;32;35069;-79
2022/08/03 04:49:53;;;;;;;;;;;;;;;24.91;48.32;100542.34;5389816;32;35817;-78
2022/08/03 04:52:55;;;;;;;;;;;;;;;24.96;48.09;100542.75;5400447;32;36839;-68
2022/08/03 04:56:02;;;;;;;;;;;;;;;25.59;46.29;100542.81;5393459;32;36102;-68
2022/08/03 04:59:04;;;;;;;;;;;;;;;25.93;45.23;100540.28;5398374;32;35224;-75
2022/08/03 05:02:06;;;;;;;;;;;;;;;26.62;44.23;100559.34;5385196;32;46814;-78
2022/08/03 05:05:08;;;;;;;;;;;;;;;27.21;42.71;100561.19;5394258;32;35335;-68
2022/08/03 05:08:11;;;;;;;;;;;;;;;26.63;44.41;100556.50;5397882;32;34725;-68
2022/08/03 05:11:14;;;;;;;;;;;;;;;28.11;41.09;100547.84;5392459;32;35244;-78
2022/08/03 05:14:16;;;;;;;;;;;;;;;27.72;42.16;100547.66;5406949;32;34915;-68
2022/08/03 05:17:28;;;;;;;;;;;;;;;28.81;40.03;100556.19;5386510;32;35513;-77
2022/08/03 05:20:30;;;;;;;;;;;;;;;29.46;38.90;100557.78;5412977;32;36341;-68
2022/08/03 05:23:32;;;;;;;;;;;;;;;29.34;39.23;100553.78;5395345;32;34827;-70
2022/08/03 05:26:34;;;;;;;;;;;;;;;28.63;40.44;100563.69;5387837;32;34904;-68
2022/08/03 05:29:36;;;;;;;;;;;;;;;28.75;40.29;100565.00;5410429;32;44679;-79
2022/08/03 05:32:38;;;;;;;;;;;;;;;28.53;41.28;100569.28;5386339;32;34813;-71
2022/08/03 05:35:40;;;;;;;;;;;;;;;28.93;40.16;100570.22;5419091;32;34930;-89
2022/08/03 05:39:02;;;;;;;;;;;;;;;29.53;39.42;100571.47;5400157;32;36746;-76
2022/08/03 05:42:04;;;;;;;;;;;;;;;30.63;36.66;100577.38;5404852;32;35774;-78
2022/08/03 05:45:13;;;;;;;;;;;;;;;30.40;37.01;100566.56;5396076;32;44466;-82
2022/08/03 05:48:16;;;;;;;;;;;;;;;30.93;36.10;100570.94;5398178;32;34840;-73
2022/08/03 05:51:18;;;;;;;;;;;;;;;30.07;37.63;100576.84;5390820;32;35365;-69
2022/08/03 05:54:20;;;;;;;;;;;;;;;29.72;38.48;100576.44;5388855;32;34786;-78
2022/08/03 05:57:42;;;;;;;;;;;;;;;29.36;39.70;100576.94;5405311;32;44565;-88
2022/08/03 06:00:45;;;;;;;;;;;;;;;29.64;38.67;100585.47;5392811;32;36013;-85
2022/08/03 06:03:48;;;;;;;;;;;;;;;30.02;37.94;100581.97;5398347;32;34709;-73
2022/08/03 06:06:50;;;;;;;;;;;;;;;30.78;36.56;100575.53;5407286;32;35312;-73
2022/08/03 06:09:52;;;;;;;;;;;;;;;30.43;36.84;100588.75;5393213;32;34780;-73
2022/08/03 06:13:14;;;;;;;;;;;;;;;30.02;37.91;100585.53;5407801;32;44928;-73
2022/08/03 06:16:17;;;;;;;;;;;;;;;30.44;36.85;100576.88;5396959;32;35904;-79
2022/08/03 06:19:19;;;;;;;;;;;;;;;31.81;34.23;100594.41;5405310;32;33973;-82
2022/08/03 06:22:21;;;;;;;;;;;;;;;31.38;34.85;100598.09;5404358;32;34738;-81
2022/08/03 06:25:27;;;;;;;;;;;;;;;29.59;38.54;100597.84;5394372;32;34657;-74
2022/08/03 06:28:30;;;;;;;;;;;;;;;30.93;35.99;100591.81;5411972;32;35504;-75
2022/08/03 06:31:51;;;;;;;;;;;;;;;31.68;34.42;100596.09;5394400;32;35975;-83
2022/08/03 06:34:53;;;;;;;;;;;;;;;32.36;33.01;100589.28;5409254;32;36395;-70
2022/08/03 06:37:56;;;;;;;;;;;;;;;32.66;32.36;100591.81;5390691;32;35114;-71
2022/08/03 06:40:57;;;;;;;;;;;;;;;33.09;31.56;100589.78;5393052;32;35029;-69
2022/08/03 06:43:59;;;;;;;;;;;;;;;33.07;31.83;100592.72;5409264;32;35672;-69
2022/08/03 06:47:05;;;;;;;;;;;;;;;32.22;33.16;100598.34;5402436;32;43895;-74
2022/08/03 06:50:08;;;;;;;;;;;;;;;32.06;33.06;100596.75;5399230;32;34736;-77
2022/08/03 06:53:18;;;;;;;;;;;;;;;34.45;29.09;100593.28;5380819;32;34579;-76
2022/08/03 06:56:22;;;;;;;;;;;;;;;33.39;30.91;100590.38;5403617;32;36102;-71
2022/08/03 06:59:24;;;;;;;;;;;;;;;33.21;30.91;100582.72;5404448;32;34336;-78
2022/08/03 07:02:45;;;;;;;;;;;;;;;32.74;31.64;100597.09;5398834;32;36462;-67
2022/08/03 07:05:48;;;;;;;;;;;;;;;34.57;28.54;100596.22;5412561;32;34651;-68
2022/08/03 07:08:50;;;;;;;;;;;;;;;31.51;33.55;100596.37;5395983;32;35234;-68
2022/08/03 07:11:58;;;;;;;;;;;;;;;32.42;32.33;100598.56;5408301;32;34640;-76
2022/08/03 07:15:00;;;;;;;;;;;;;;;33.91;29.80;100588.84;5395576;32;36556;-68
2022/08/03 07:18:05;;;;;;;;;;;;;;;33.32;30.24;100589.47;5397059;32;35329;-79
2022/08/03 07:21:09;;;;;;;;;;;;;;;35.80;26.78;100594.34;5409065;32;44434;-69
2022/08/03 07:24:11;;;;;;;;;;;;;;;32.76;31.19;100593.13;5390868;32;34628;-67
2022/08/03 07:27:14;;;;;;;;;;;;;;;35.82;26.79;100592.25;5404750;32;34779;-75
2022/08/03 07:30:16;;;;;;;;;;;;;;;36.19;26.04;100595.12;5393910;32;37844;-74
2022/08/03 07:33:18;;;;;;;;;;;;;;;34.33;28.80;100590.34;5411901;32;35869;-71
2022/08/03 07:36:21;;;;;;;;;;;;;;;34.83;28.45;100582.53;5399045;32;34845;-77
2022/08/03 07:39:23;;;;;;;;;;;;;;;37.21;24.78;100584.66;5395740;32;36083;-75
2022/08/03 07:42:27;;;;;;;;;;;;;;;34.42;28.55;100588.28;5410271;32;36113;-69
2022/08/03 07:45:31;;;;;;;;;;;;;;;36.71;25.55;100574.69;5396499;32;35237;-73
2022/08/03 07:48:32;;;;;;;;;;;;;;;34.88;28.00;100590.91;5407262;32;35255;-69
2022/08/03 07:51:35;;;;;;;;;;;;;;;35.59;26.80;100587.31;5379068;32;45078;-74
2022/08/03 07:54:36;;;;;;;;;;;;;;;36.62;25.00;100581.50;5399708;32;34903;-72
2022/08/03 07:57:38;;;;;;;;;;;;;;;38.08;23.06;100557.72;5398411;32;36404;-73
2022/08/03 08:00:41;;;;;;;;;;;;;;;36.34;25.31;100574.59;5395847;32;35178;-67
2022/08/03 08:03:42;;;;;;;;;;;;;;;35.13;27.36;100582.06;5411334;32;34966;-74
2022/08/03 08:06:53;;;;;;;;;;;;;;;33.93;29.24;100587.59;5405286;32;35969;-70
2022/08/03 08:09:55;;;;;;;;;;;;;;;34.24;28.53;100577.97;5411590;32;34763;-69
2022/08/03 08:12:58;;;;;;;;;;;;;;;34.14;28.95;100581.12;5395140;32;34861;-68
2022/08/03 08:15:59;;;;;;;;;;;;;;;36.27;25.78;100575.72;5399993;32;34692;-72
2022/08/03 08:19:02;;;;;;;;;;;;;;;33.49;29.53;100574.50;5403119;32;34728;-69
2022/08/03 08:22:05;;;;;;;;;;;;;;;35.65;26.21;100570.03;5395650;32;36160;-68
2022/08/03 08:25:07;;;;;;;;;;;;;;;37.70;23.46;100571.78;5410921;32;46376;-72
2022/08/03 08:28:09;;;;;;;;;;;;;;;35.15;27.16;100586.22;5389671;32;34842;-70
2022/08/03 08:31:31;;;;;;;;;;;;;;;35.47;26.53;100578.12;5410885;32;36374;-73
2022/08/03 08:34:33;;;;;;;;;;;;;;;35.31;26.70;100587.66;5392666;32;36328;-69
2022/08/03 08:37:35;;;;;;;;;;;;;;;35.86;25.24;100579.78;5395706;32;43054;-69
2022/08/03 08:40:37;;;;;;;;;;;;;;;36.80;24.63;100567.00;5412117;32;36066;-72
2022/08/03 08:43:39;;;;;;;;;;;;;;;35.58;26.00;100585.66;5393233;32;35682;-70
2022/08/03 08:46:41;;;;;;;;;;;;;;;37.89;23.04;100574.25;5408823;32;35052;-72
2022/08/03 08:49:43;;;;;;;;;;;;;;;38.06;22.38;100571.66;5399616;32;35891;-78
2022/08/03 08:53:06;;;;;;;;;;;;;;;37.20;23.41;100572.03;5391554;32;45161;-81
2022/08/03 08:56:14;;;;;;;;;;;;;;;34.99;26.42;100581.25;5409203;32;36016;-76
2022/08/03 08:59:16;;;;;;;;;;;;;;;37.43;23.14;100563.97;5402073;32;33643;-84
2022/08/03 09:02:18;;;;;;;;;;;;;;;37.48;23.18;100564.06;5412578;32;34847;-77
2022/08/03 09:05:20;;;;;;;;;;;;;;;38.54;22.02;100562.41;5398336;32;35568;-76
2022/08/03 09:08:42;;;;;;;;;;;;;;;36.32;24.58;100557.53;5406190;32;46054;-76
2022/08/03 09:11:44;;;;;;;;;;;;;;;37.17;23.33;100551.41;5401724;32;34713;-71
2022/08/03 09:15:17;;;;;;;;;;;;;;;36.79;23.76;100557.12;5398766;32;43769;-79
2022/08/03 09:18:27;;;;;;;;;;;;;;;38.17;21.97;100550.78;5407029;32;36099;-70
2022/08/03 09:21:33;;;;;;;;;;;;;;;37.85;22.13;100556.59;5397194;32;35199;-69
2022/08/03 09:24:36;;;;;;;;;;;;;;;38.31;21.98;100554.16;5409166;32;45067;-72
2022/08/03 09:27:43;;;;;;;;;;;;;;;38.20;21.72;100555.81;5399882;32;36211;-75
2022/08/03 09:30:56;;;;;;;;;;;;;;;37.65;22.45;100554.12;5396303;32;36237;-72
2022/08/03 09:34:06;;;;;;;;;;;;;;;36.38;23.93;100553.06;5409611;32;33710;-73
2022/08/03 09:37:11;;;;;;;;;;;;;;;38.65;21.20;100553.34;5402280;32;44518;-74
2022/08/03 09:40:14;;;;;;;;;;;;;;;38.73;20.74;100542.00;5409611;32;35104;-73
2022/08/03 09:43:16;;;;;;;;;;;;;;;37.82;22.09;100537.03;5389015;32;35546;-70
2022/08/03 09:46:18;;;;;;;;;;;;;;;38.30;21.19;100544.28;5395801;32;35710;-69
2022/08/03 09:49:20;;;;;;;;;;;;;;;38.25;20.87;100538.63;5403424;32;34688;-74
2022/08/03 09:52:22;;;;;;;;;;;;;;;39.19;20.31;100531.97;5378088;32;34883;-72
2022/08/03 09:55:49;;;;;;;;;;;;;;;38.13;21.90;100525.75;5405635;32;44346;-70
2022/08/03 09:59:11;;;;;;;;;;;;;;;41.69;17.69;100515.56;5389623;32;44821;-69
2022/08/03 10:02:24;;;;;;;;;;;;;;;40.71;18.56;100519.13;5393287;32;35879;-70
2022/08/03 10:05:31;;;;;;;;;;;;;;;38.56;20.44;100510.81;5411851;32;36652;-69
2022/08/03 10:08:33;;;;;;;;;;;;;;;38.07;21.19;100503.91;5396915;32;34618;-67
2022/08/03 10:11:35;;;;;;;;;;;;;;;39.25;19.86;100509.00;5411607;32;44620;-67
2022/08/03 10:14:44;;;;;;;;;;;;;;;38.56;20.30;100515.47;5395185;32;34962;-67
2022/08/03 10:17:46;;;;;;;;;;;;;;;38.12;20.50;100515.00;5401053;32;33376;-66
2022/08/03 10:20:49;;;;;;;;;;;;;;;39.04;19.40;100508.84;5405660;32;36170;-66
2022/08/03 10:23:52;;;;;;;;;;;;;;;40.54;17.96;100494.37;5394603;32;34341;-67
2022/08/03 10:26:57;;;;;;;;;;;;;;;40.53;18.06;100509.25;5406473;32;34998;-76
2022/08/03 10:30:03;;;;;;;;;;;;;;;38.18;20.73;100512.13;5396782;32;36602;-83
2022/08/03 10:33:07;;;;;;;;;;;;;;;41.82;16.91;100499.41;5418578;32;44955;-83
2022/08/03 10:36:29;;;;;;;;;;;;;;;43.47;15.12;100497.19;5395728;32;35085;-76
2022/08/03 10:39:33;;;;;;;;;;;;;;;41.27;16.89;100494.97;5394988;32;35658;-73
2022/08/03 10:42:35;;;;;;;;;;;;;;;41.37;16.70;100488.78;5402266;32;34747;-76
2022/08/03 10:45:39;;;;;;;;;;;;;;;36.85;21.55;100493.22;5384790;32;36825;-71
2022/08/03 10:48:42;;;;;;;;;;;;;;;36.15;22.70;100484.50;5393417;32;34654;-76
2022/08/03 10:51:44;;;;;;;;;;;;;;;37.68;20.73;100482.38;5377652;32;34773;-78
2022/08/03 10:58:11;;;;;;;;;;;;;;;37.75;21.06;100471.31;5396517;32;43450;-72
2022/08/03 11:01:13;;;;;;;;;;;;;;;36.65;21.98;100470.69;5400057;32;34633;-85
2022/08/03 11:04:16;;;;;;;;;;;;;;;37.77;20.51;100468.31;5400293;32;34666;-86
2022/08/03 11:07:22;;;;;;;;;;;;;;;40.52;17.28;100463.53;5397940;32;34839;-70
2022/08/03 11:10:30;;;;;;;;;;;;;;;40.11;17.73;100455.75;5412553;32;36066;-70
2022/08/03 11:13:32;;;;;;;;;;;;;;;39.53;18.64;100460.56;5397175;32;35186;-68
2022/08/03 11:16:36;;;;;;;;;;;;;;;37.98;20.00;100459.53;5397101;32;42719;-68
2022/08/03 11:19:45;;;;;;;;;;;;;;;37.79;20.22;100446.97;5413183;32;34834;-64
2022/08/03 11:23:00;;;;;;;;;;;;;;;35.14;23.98;100460.81;5390696;32;35511;-74
2022/08/03 11:26:18;;;;;;;;;;;;;;;34.59;24.56;100460.41;5394162;32;37322;-74
2022/08/03 11:29:29;;;;;;;;;;;;;;;34.83;24.15;100456.09;5382590;32;35009;-76
2022/08/03 11:32:44;;;;;;;;;;;;;;;35.28;22.77;100454.19;5380509;32;34315;-70
2022/08/03 11:35:59;;;;;;;;;;;;;;;35.03;23.49;100445.94;5402752;32;37494;-66
2022/08/03 11:39:15;;;;;;;;;;;;;;;36.05;22.05;100443.97;5383069;32;36025;-66
2022/08/03 11:42:20;;;;;;;;;;;;;;;35.97;21.89;100447.81;5383807;32;33449;-69
2022/08/03 11:45:23;;;;;;;;;;;;;;;37.56;20.07;100439.56;5394192;32;34691;-69
2022/08/03 11:48:28;;;;;;;;;;;;;;;37.05;20.58;100432.72;5400542;32;34771;-77
2022/08/03 11:51:30;;;;;;;;;;;;;;;37.94;19.53;100428.19;5394246;32;34855;-71
2022/08/03 11:54:32;;;;;;;;;;;;;;;40.80;16.67;100432.16;5398622;32;36072;-70
2022/08/03 11:57:35;;;;;;;;;;;;;;;40.37;17.17;100427.47;5405899;32;44881;-73
2022/08/03 12:01:03;;;;;;;;;;;;;;;42.10;15.70;100417.34;5400522;32;35444;-75
2022/08/03 12:04:06;;;;;;;;;;;;;;;43.48;14.59;100415.88;5392903;32;43982;-71
2022/08/03 12:07:07;;;;;;;;;;;;;;;41.05;16.82;100415.09;5412134;32;34681;-76
2022/08/03 12:10:11;;;;;;;;;;;;;;;42.66;14.70;100417.66;5397164;32;35330;-77
2022/08/03 12:13:13;;;;;;;;;;;;;;;46.73;11.36;100412.03;5409823;32;36061;-76
2022/08/03 12:16:35;;;;;;;;;;;;;;;43.26;13.91;100413.34;5391850;32;46961;-73
2022/08/03 12:19:40;;;;;;;;;;;;;;;45.16;12.65;100395.06;5389406;32;37427;-76
2022/08/03 12:22:42;;;;;;;;;;;;;;;46.11;11.83;100400.03;5391989;32;35100;-76
2022/08/03 12:25:45;;;;;;;;;;;;;;;42.68;14.58;100398.84;5387462;32;34760;-77
2022/08/03 12:28:48;;;;;;;;;;;;;;;39.60;17.14;100413.66;5393344;32;33686;-77
2022/08/03 12:31:51;;;;;;;;;;;;;;;40.94;16.05;100387.69;5379244;32;34972;-76
2022/08/03 12:34:54;;;;;;;;;;;;;;;43.26;13.99;100391.22;5396786;32;35406;-77
2022/08/03 12:37:57;;;;;;;;;;;;;;;39.61;17.37;100396.06;5384367;32;35760;-77
2022/08/03 12:41:00;;;;;;;;;;;;;;;39.28;17.24;100398.53;5391900;32;35546;-77
2022/08/03 12:44:02;;;;;;;;;;;;;;;37.49;19.50;100390.31;5400946;32;35245;-78
2022/08/03 12:47:05;;;;;;;;;;;;;;;37.19;19.65;100384.03;5388852;32;35638;-79
2022/08/03 12:50:07;;;;;;;;;;;;;;;35.21;21.65;100382.38;5398558;32;43488;-77
2022/08/03 12:53:10;;;;;;;;;;;;;;;35.57;21.39;100372.69;5382669;32;34230;-80
2022/08/03 12:56:13;;;;;;;;;;;;;;;36.83;19.89;100381.16;5407232;32;37307;-85
2022/08/03 12:59:25;;;;;;;;;;;;;;;35.87;21.08;100381.84;5398358;32;34520;-79
2022/08/03 13:02:35;;;;;;;;;;;;;;;35.81;20.80;100380.88;5396422;32;45100;-74
2022/08/03 13:05:44;;;;;;;;;;;;;;;34.48;22.63;100382.78;5404727;32;36230;-75
2022/08/03 13:08:47;;;;;;;;;;;;;;;34.66;22.72;100379.34;5388522;32;34926;-74
2022/08/03 13:12:02;;;;;;;;;;;;;;;34.60;22.43;100385.69;5409328;32;35618;-81
2022/08/03 13:15:08;;;;;;;;;;;;;;;35.13;21.92;100367.09;5379243;32;45474;-74
2022/08/03 13:18:10;;;;;;;;;;;;;;;34.44;22.84;100376.91;5408193;32;36319;-71
2022/08/03 13:21:18;;;;;;;;;;;;;;;35.74;21.18;100365.56;5414132;32;36336;-71
2022/08/03 13:24:20;;;;;;;;;;;;;;;34.20;23.22;100363.97;5395832;32;35955;-71
2022/08/03 13:27:23;;;;;;;;;;;;;;;33.63;23.68;100360.09;5407286;32;35302;-73
2022/08/03 13:30:44;;;;;;;;;;;;;;;33.81;23.52;100357.50;5381345;32;38614;-80
2022/08/03 13:33:47;;;;;;;;;;;;;;;34.29;22.51;100356.38;5405478;32;37614;-75
2022/08/03 13:36:49;;;;;;;;;;;;;;;34.93;21.96;100350.88;5399270;32;37741;-78
2022/08/03 13:40:10;;;;;;;;;;;;;;;35.42;20.92;100341.03;5391053;32;44551;-84
2022/08/03 13:43:12;;;;;;;;;;;;;;;35.33;21.18;100341.53;5407402;32;34597;-74
2022/08/03 13:46:14;;;;;;;;;;;;;;;35.30;21.55;100339.25;5392738;32;34524;-79
2022/08/03 13:49:16;;;;;;;;;;;;;;;35.75;20.89;100337.19;5417627;32;35798;-82
2022/08/03 13:52:19;;;;;;;;;;;;;;;34.93;21.64;100334.47;5374715;32;37690;-81
2022/08/03 13:55:21;;;;;;;;;;;;;;;35.46;21.08;100323.16;5399317;32;34976;-73
2022/08/03 13:58:23;;;;;;;;;;;;;;;33.75;22.75;100324.81;5410811;32;36641;-83
2022/08/03 14:01:25;;;;;;;;;;;;;;;34.84;21.51;100321.28;5397152;32;34764;-74
2022/08/03 14:04:47;;;;;;;;;;;;;;;34.78;21.31;100316.69;5413745;32;35002;-81
2022/08/03 14:07:49;;;;;;;;;;;;;;;35.90;20.06;100321.25;5392978;32;35242;-72
2022/08/03 14:10:54;;;;;;;;;;;;;;;35.16;21.42;100311.19;5409873;32;35577;-73
2022/08/03 14:13:55;;;;;;;;;;;;;;;34.76;21.87;100308.72;5399174;32;35627;-74
2022/08/03 14:16:57;;;;;;;;;;;;;;;35.51;20.76;100317.03;5395855;32;35382;-73
2022/08/03 14:19:59;;;;;;;;;;;;;;;34.53;21.70;100312.03;5413364;32;35307;-72
2022/08/03 14:23:03;;;;;;;;;;;;;;;35.29;20.50;100308.34;5392164;32;34949;-73
2022/08/03 14:26:05;;;;;;;;;;;;;;;34.73;21.35;100301.81;5410550;32;43213;-79
2022/08/03 14:29:07;;;;;;;;;;;;;;;35.46;20.77;100304.03;5390273;32;35557;-82
2022/08/03 14:32:09;;;;;;;;;;;;;;;35.61;20.39;100300.09;5400074;32;35139;-80
2022/08/03 14:35:14;;;;;;;;;;;;;;;35.01;21.06;100295.13;5392897;32;35677;-73
2022/08/03 14:38:16;;;;;;;;;;;;;;;35.05;21.40;100290.91;5386922;32;34532;-79
2022/08/03 14:41:18;;;;;;;;;;;;;;;36.05;20.39;100293.53;5404847;32;34274;-74
2022/08/03 14:44:20;;;;;;;;;;;;;;;36.06;19.77;100289.72;5387691;32;35424;-80
2022/08/03 14:47:23;;;;;;;;;;;;;;;35.67;19.94;100289.09;5411416;32;36045;-80
2022/08/03 14:50:27;;;;;;;;;;;;;;;34.71;20.87;100295.72;5387422;32;34953;-73
2022/08/03 14:53:45;;;;;;;;;;;;;;;34.01;21.58;100291.25;5390239;32;44913;-79
2022/08/03 14:56:47;;;;;;;;;;;;;;;33.71;22.00;100283.56;5404898;32;37639;-81
2022/08/03 14:59:49;;;;;;;;;;;;;;;34.92;21.13;100280.94;5386671;32;35984;-73
2022/08/03 15:02:58;;;;;;;;;;;;;;;35.01;20.40;100285.06;5401658;32;36610;-83
2022/08/03 15:06:00;;;;;;;;;;;;;;;35.14;20.10;100278.66;5393176;32;34266;-73
2022/08/03 15:09:02;;;;;;;;;;;;;;;35.25;20.10;100286.12;5407337;32;35333;-81
2022/08/03 15:12:24;;;;;;;;;;;;;;;35.00;20.17;100282.56;5411887;32;35703;-81
2022/08/03 15:15:26;;;;;;;;;;;;;;;34.61;20.34;100283.66;5400675;32;34709;-73
2022/08/03 15:18:28;;;;;;;;;;;;;;;35.61;19.70;100280.97;5404691;32;36792;-73
2022/08/03 15:21:30;;;;;;;;;;;;;;;34.65;20.23;100277.53;5394682;32;35038;-79
2022/08/03 15:24:48;;;;;;;;;;;;;;;35.48;19.58;100271.84;5415825;32;35005;-78
2022/08/03 15:27:51;;;;;;;;;;;;;;;35.50;19.48;100272.47;5386014;32;36714;-72
2022/08/03 15:31:05;;;;;;;;;;;;;;;35.07;20.05;100263.38;5394561;32;44524;-72
2022/08/03 15:34:07;;;;;;;;;;;;;;;35.50;19.44;100269.72;5416234;32;34999;-81
2022/08/03 15:37:09;;;;;;;;;;;;;;;35.38;19.65;100273.41;5391372;32;35226;-73
2022/08/03 15:40:17;;;;;;;;;;;;;;;34.38;20.78;100268.63;5409311;32;35518;-74
2022/08/03 15:43:22;;;;;;;;;;;;;;;34.26;21.06;100269.53;5388679;32;37434;-72
2022/08/03 15:46:24;;;;;;;;;;;;;;;34.50;20.92;100268.78;5403667;32;34193;-73
2022/08/03 15:49:31;;;;;;;;;;;;;;;33.66;22.17;100277.91;5406138;32;37324;-73
2022/08/03 15:52:35;;;;;;;;;;;;;;;34.65;21.29;100272.06;5362961;32;33893;-73
2022/08/03 15:55:37;;;;;;;;;;;;;;;34.70;20.70;100265.94;5415844;32;35524;-82
2022/08/03 15:58:39;;;;;;;;;;;;;;;34.05;21.55;100267.94;5388454;32;35645;-81